Time;durP1;ratioP1;P1;durP2;ratioP2;P2;SDS_P1;SDS_P2;PMS_P1;PMS_P2;Temp;Humidity;BMP_temperature;BMP_pressure;BME280_temperature;BME280_humidity;BME280_pressure;Samples;Min_cycle;Max_cycle;Signal;HPM_P1;HPM_P2
2023/06/04 00:00:52;;;;;;;2.23;1.57;;;;;;;13.38;46.99;101796.13;5046884;28;20229;-80
2023/06/04 00:03:19;;;;;;;1.70;1.60;;;;;;;13.37;46.83;101799.63;5046165;28;20206;-80
2023/06/04 00:05:45;;;;;;;1.23;1.13;;;;;;;13.40;47.52;101810.09;5047053;28;20233;-81
2023/06/04 00:08:12;;;;;;;1.20;1.10;;;;;;;13.39;48.28;101810.97;5046767;28;20231;-80
2023/06/04 00:10:39;;;;;;;2.53;1.27;;;;;;;13.28;48.83;101803.16;5047811;28;20214;-81
2023/06/04 00:13:07;;;;;;;1.00;1.00;;;;;;;13.24;48.61;101783.09;5052895;28;20263;-80
2023/06/04 00:15:33;;;;;;;1.20;1.10;;;;;;;13.30;49.07;101769.09;5062043;28;20243;-79
2023/06/04 00:18:01;;;;;;;3.30;1.30;;;;;;;13.23;49.96;101760.38;5051851;28;20210;-80
2023/06/04 00:20:27;;;;;;;1.70;1.07;;;;;;;13.19;49.75;101745.56;5051218;28;20229;-79
2023/06/04 00:22:54;;;;;;;1.93;1.20;;;;;;;13.17;49.32;101728.97;5052935;28;20217;-80
2023/06/04 00:25:20;;;;;;;1.30;1.20;;;;;;;13.24;49.52;101730.66;5051709;28;20233;-80
2023/06/04 00:27:46;;;;;;;2.37;1.10;;;;;;;13.20;50.16;101715.84;5045623;28;20209;-80
2023/06/04 00:30:14;;;;;;;1.20;1.10;;;;;;;13.11;49.79;101718.53;5042013;28;20201;-81
2023/06/04 00:32:40;;;;;;;1.20;1.00;;;;;;;13.08;49.53;101711.56;5041439;28;20260;-80
2023/06/04 00:35:09;;;;;;;1.00;1.00;;;;;;;12.98;49.42;101722.13;5041377;28;20228;-78
2023/06/04 00:37:35;;;;;;;1.53;1.10;;;;;;;12.95;49.74;101720.41;5040558;28;20209;-78
2023/06/04 00:40:02;;;;;;;1.07;1.00;;;;;;;12.93;49.48;101722.19;5040754;28;20217;-79
2023/06/04 00:42:28;;;;;;;1.20;1.10;;;;;;;12.82;50.00;101722.25;5039902;28;20270;-78
2023/06/04 00:44:57;;;;;;;2.50;1.13;;;;;;;12.80;50.31;101721.38;5042777;28;20303;-79
2023/06/04 00:47:23;;;;;;;1.27;1.10;;;;;;;12.77;50.16;101713.56;5040714;28;20213;-78
2023/06/04 00:49:50;;;;;;;1.73;1.10;;;;;;;12.74;50.03;101703.09;5039450;28;20240;-78
2023/06/04 00:52:19;;;;;;;1.20;1.10;;;;;;;12.73;50.52;101701.38;5039479;28;20205;-78
2023/06/04 00:54:45;;;;;;;2.73;1.00;;;;;;;12.65;50.89;101700.56;5039990;28;20233;-78
2023/06/04 00:57:11;;;;;;;2.87;0.97;;;;;;;12.57;50.46;101698.00;5040075;28;20276;-78
2023/06/04 00:59:40;;;;;;;1.00;0.97;;;;;;;12.63;50.45;101697.97;5039831;28;20212;-78
2023/06/04 01:02:09;;;;;;;1.10;1.00;;;;;;;12.64;50.05;101694.44;5040300;28;20233;-78
2023/06/04 01:04:41;;;;;;;1.17;1.00;;;;;;;12.60;50.07;101702.34;5039637;28;20727;-78
2023/06/04 01:07:12;;;;;;;1.03;1.03;;;;;;;12.56;51.02;101711.09;5039217;28;20235;-78
2023/06/04 01:09:40;;;;;;;1.23;1.13;;;;;;;12.54;51.76;101689.28;5039056;28;20223;-78
2023/06/04 01:12:07;;;;;;;1.00;0.90;;;;;;;12.43;51.94;101674.53;5039414;28;20259;-78
2023/06/04 01:14:34;;;;;;;1.80;1.33;;;;;;;12.41;51.65;101665.81;5038956;28;20225;-78
2023/06/04 01:17:03;;;;;;;1.50;1.00;;;;;;;12.39;52.23;101654.47;5038799;28;20693;-78
2023/06/04 01:19:59;;;;;;;0.97;0.97;;;;;;;12.40;51.60;101634.38;5038900;28;20691;-78
2023/06/04 01:22:33;;;;;;;1.60;1.40;;;;;;;12.36;52.17;101627.44;5038976;28;20232;-78
2023/06/04 01:25:04;;;;;;;1.20;1.10;;;;;;;12.30;52.04;101629.22;5039449;28;20229;-78
2023/06/04 01:27:32;;;;;;;1.80;1.33;;;;;;;12.27;52.36;101629.25;5038651;28;20582;-78
2023/06/04 01:30:00;;;;;;;1.30;1.20;;;;;;;12.26;52.00;101621.41;5040610;28;20268;-81
2023/06/04 01:32:27;;;;;;;1.37;1.27;;;;;;;12.22;51.73;101623.16;5046871;28;20215;-78
2023/06/04 01:34:54;;;;;;;1.93;1.20;;;;;;;12.12;52.29;101624.09;5044203;28;20228;-79
2023/06/04 01:37:20;;;;;;;2.60;1.10;;;;;;;12.13;52.55;101612.78;5042208;28;20207;-78
2023/06/04 01:39:46;;;;;;;1.43;1.10;;;;;;;12.12;52.53;101608.41;5038788;28;20208;-78
2023/06/04 01:42:14;;;;;;;1.87;1.13;;;;;;;12.03;52.49;101605.81;5038944;28;20228;-78
2023/06/04 01:44:40;;;;;;;1.43;1.07;;;;;;;11.96;52.89;101609.38;5039068;28;20232;-78
2023/06/04 01:47:07;;;;;;;1.37;1.27;;;;;;;11.85;52.66;101602.44;5038936;28;20622;-78
2023/06/04 01:49:33;;;;;;;1.90;1.10;;;;;;;11.77;52.85;101608.56;5039800;28;20583;-79
2023/06/04 01:51:59;;;;;;;1.20;1.00;;;;;;;11.75;52.84;101597.25;5040768;28;20263;-79
2023/06/04 01:54:29;;;;;;;1.00;1.00;;;;;;;11.84;51.70;101598.06;5044854;28;20306;-79
2023/06/04 01:56:56;;;;;;;1.70;1.20;;;;;;;11.76;52.60;101612.06;5045677;28;20196;-79
2023/06/04 01:59:24;;;;;;;1.33;1.07;;;;;;;11.74;52.44;101612.06;5042698;28;20208;-79
2023/06/04 02:01:50;;;;;;;1.63;1.10;;;;;;;11.78;52.35;101619.03;5041770;28;20294;-78
2023/06/04 02:04:16;;;;;;;1.23;1.17;;;;;;;11.71;52.75;101615.59;5038684;28;20229;-79
2023/06/04 02:06:43;;;;;;;1.67;1.10;;;;;;;11.63;53.49;101609.50;5038949;28;20205;-79
2023/06/04 02:09:09;;;;;;;1.40;1.30;;;;;;;11.53;53.86;101605.19;5040815;28;20748;-79
2023/06/04 02:11:35;;;;;;;1.33;1.23;;;;;;;11.51;54.47;101586.88;5038550;28;20206;-79
2023/06/04 02:14:02;;;;;;;1.73;1.43;;;;;;;11.49;54.85;101570.31;5041431;28;20225;-79
2023/06/04 02:16:30;;;;;;;1.47;1.20;;;;;;;11.49;54.40;101557.25;5041438;28;20205;-79
2023/06/04 02:18:56;;;;;;;1.50;1.40;;;;;;;11.47;55.52;101558.16;5041061;28;20206;-79
2023/06/04 02:21:23;;;;;;;2.00;1.40;;;;;;;11.39;55.11;101536.41;5041213;28;20284;-79
2023/06/04 02:23:49;;;;;;;1.40;1.23;;;;;;;11.40;54.99;101533.78;5041147;28;20229;-79
2023/06/04 02:26:15;;;;;;;1.60;1.30;;;;;;;11.38;54.97;101535.53;5040732;28;20216;-79
2023/06/04 02:28:42;;;;;;;1.53;1.20;;;;;;;11.16;56.44;101539.09;5039043;28;20237;-79
2023/06/04 02:31:08;;;;;;;2.50;1.30;;;;;;;11.27;55.41;101511.19;5039867;28;20672;-79
2023/06/04 02:33:36;;;;;;;1.27;1.13;;;;;;;11.33;54.91;101516.38;5041821;28;20206;-79
2023/06/04 02:36:02;;;;;;;1.30;1.20;;;;;;;11.44;55.07;101513.72;5041198;28;20209;-78
2023/06/04 02:38:28;;;;;;;2.20;1.40;;;;;;;11.31;54.93;101521.59;5039507;28;20204;-79
2023/06/04 02:40:55;;;;;;;1.37;1.23;;;;;;;11.30;53.70;101527.72;5038911;28;20225;-78
2023/06/04 02:43:21;;;;;;;2.30;1.43;;;;;;;11.35;54.16;101548.63;5040996;28;20686;-79
2023/06/04 02:45:47;;;;;;;1.40;1.30;;;;;;;11.41;54.10;101551.19;5044924;28;20257;-78
2023/06/04 02:48:14;;;;;;;1.70;1.43;;;;;;;11.44;54.10;101551.19;5043039;28;20207;-78
2023/06/04 02:50:42;;;;;;;2.80;1.23;;;;;;;11.41;53.96;101566.03;5042646;28;20219;-79
2023/06/04 02:53:08;;;;;;;2.10;1.33;;;;;;;11.41;53.54;101571.25;5044846;28;20214;-79
2023/06/04 02:55:36;;;;;;;1.97;1.30;;;;;;;11.40;53.69;101586.06;5041878;28;20240;-79
2023/06/04 02:58:02;;;;;;;2.83;1.30;;;;;;;11.35;55.14;101592.19;5044329;28;20240;-79
2023/06/04 03:00:29;;;;;;;1.60;1.50;;;;;;;11.34;54.46;101570.41;5045338;28;20231;-78
2023/06/04 03:03:00;;;;;;;1.43;1.33;;;;;;;11.26;53.00;101582.66;5045594;28;20233;-79
2023/06/04 03:05:30;;;;;;;4.30;2.37;;;;;;;11.22;53.49;101607.03;5045120;28;20233;-79
2023/06/04 03:07:59;;;;;;;2.13;1.20;;;;;;;11.24;53.62;101605.31;5046579;28;20210;-79
2023/06/04 03:10:25;;;;;;;4.50;1.30;;;;;;;11.29;53.78;101611.38;5046208;28;20209;-79
2023/06/04 03:12:52;;;;;;;2.07;1.40;;;;;;;11.26;53.32;101606.16;5043916;28;20209;-79
2023/06/04 03:15:18;;;;;;;1.20;1.10;;;;;;;11.28;52.51;101610.50;5040916;28;20218;-78
2023/06/04 03:17:45;;;;;;;1.80;1.30;;;;;;;11.31;52.71;101628.78;5044278;28;20209;-79
2023/06/04 03:20:11;;;;;;;2.13;1.17;;;;;;;11.31;53.69;101633.16;5043395;28;20206;-79
2023/06/04 03:22:38;;;;;;;2.10;1.10;;;;;;;11.27;53.96;101623.59;5042454;28;20784;-79
2023/06/04 03:25:06;;;;;;;1.23;1.13;;;;;;;11.13;54.72;101621.00;5043759;28;20742;-79
2023/06/04 03:27:33;;;;;;;1.30;1.20;;;;;;;11.09;54.86;101588.78;5045810;28;20207;-79
2023/06/04 03:30:00;;;;;;;4.00;1.33;;;;;;;11.05;53.87;101589.66;5045261;28;20259;-79
2023/06/04 03:32:26;;;;;;;1.60;1.50;;;;;;;11.00;53.63;101588.81;5043463;28;20679;-79
2023/06/04 03:34:53;;;;;;;3.43;1.53;;;;;;;10.90;54.26;101608.84;5043608;28;20726;-79
2023/06/04 03:37:19;;;;;;;2.53;1.53;;;;;;;10.90;55.56;101600.13;5042040;28;20260;-78
2023/06/04 03:39:45;;;;;;;1.80;1.70;;;;;;;10.86;54.99;101585.34;5041532;28;20259;-79
2023/06/04 03:42:13;;;;;;;2.30;1.60;;;;;;;10.42;57.00;101591.47;5041796;28;20274;-79
2023/06/04 03:44:39;;;;;;;2.57;1.70;;;;;;;10.45;57.82;101552.31;5041744;28;20231;-80
2023/06/04 03:47:06;;;;;;;1.90;1.80;;;;;;;10.33;57.99;101527.09;5042234;28;20267;-79
2023/06/04 03:49:32;;;;;;;1.70;1.60;;;;;;;10.41;58.29;101508.81;5041022;28;20202;-79
2023/06/04 03:51:58;;;;;;;2.50;1.93;;;;;;;10.23;58.57;101492.28;5041440;28;20208;-79
2023/06/04 03:54:25;;;;;;;1.87;1.70;;;;;;;10.27;59.34;101475.75;5043214;28;20222;-79
2023/06/04 03:56:51;;;;;;;1.80;1.63;;;;;;;10.31;59.78;101448.81;5043605;28;20681;-79
2023/06/04 03:59:19;;;;;;;3.93;1.60;;;;;;;10.27;59.71;101418.34;5042097;28;20209;-79
2023/06/04 04:01:45;;;;;;;3.10;1.70;;;;;;;10.31;59.42;101403.56;5042367;28;20289;-78
2023/06/04 04:04:12;;;;;;;2.40;1.70;;;;;;;10.36;59.52;101414.00;5041501;28;20277;-79
2023/06/04 04:06:38;;;;;;;1.93;1.50;;;;;;;10.43;60.04;101408.75;5041155;28;20241;-79
2023/06/04 04:09:06;;;;;;;2.47;1.70;;;;;;;10.38;59.50;101405.28;5041426;28;20206;-79
2023/06/04 04:11:32;;;;;;;2.80;1.63;;;;;;;10.53;60.04;101399.16;5041623;28;20233;-79
2023/06/04 04:13:58;;;;;;;1.83;1.67;;;;;;;10.58;59.96;101405.22;5042091;28;20230;-79
2023/06/04 04:16:27;;;;;;;1.57;1.43;;;;;;;10.64;59.73;101396.50;5043015;28;20566;-79
2023/06/04 04:18:53;;;;;;;2.00;1.80;;;;;;;10.53;59.10;101404.38;5043185;28;20207;-79
2023/06/04 04:21:20;;;;;;;2.70;1.70;;;;;;;10.60;60.36;101411.31;5041865;28;20214;-80
2023/06/04 04:23:47;;;;;;;2.33;1.80;;;;;;;10.47;60.06;101425.28;5039816;28;20230;-79
2023/06/04 04:26:16;;;;;;;1.50;1.40;;;;;;;10.52;60.10;101416.56;5040504;28;20630;-79
2023/06/04 04:28:43;;;;;;;3.23;1.50;;;;;;;10.67;60.11;101402.59;5041971;28;20213;-79
2023/06/04 04:31:09;;;;;;;2.50;1.80;;;;;;;10.54;59.40;101411.31;5040944;28;20241;-79
2023/06/04 04:33:39;;;;;;;1.90;1.70;;;;;;;10.64;59.18;101420.00;5040067;28;20210;-79
2023/06/04 04:36:08;;;;;;;1.80;1.70;;;;;;;10.68;59.58;101422.63;5039825;28;20207;-79
2023/06/04 04:38:35;;;;;;;2.03;1.83;;;;;;;10.79;59.75;101412.13;5039731;28;20212;-79
2023/06/04 04:41:01;;;;;;;2.33;2.00;;;;;;;10.91;59.85;101426.88;5039982;28;20207;-79
2023/06/04 04:43:32;;;;;;;2.70;1.97;;;;;;;10.88;59.38;101422.53;5039584;28;20599;-78
2023/06/04 04:45:58;;;;;;;1.73;1.63;;;;;;;10.80;58.72;101426.91;5077115;23;20280;-84
2023/06/04 04:48:25;;;;;;;3.93;1.70;;;;;;;10.77;59.05;101445.19;5047114;28;20248;-84
2023/06/04 04:50:53;;;;;;;2.20;1.87;;;;;;;10.65;60.20;101451.34;5041228;28;20239;-83
2023/06/04 04:53:19;;;;;;;2.40;1.87;;;;;;;10.41;60.33;101448.78;5040270;28;20229;-83
2023/06/04 04:55:45;;;;;;;1.77;1.63;;;;;;;10.47;60.13;101440.94;5040590;28;20222;-84
2023/06/04 04:58:12;;;;;;;2.03;1.83;;;;;;;10.61;60.81;101415.66;5040141;28;20218;-84
2023/06/04 05:00:39;;;;;;;1.60;1.50;;;;;;;10.82;61.39;101424.28;5041679;28;20237;-84
2023/06/04 05:03:05;;;;;;;2.10;1.90;;;;;;;10.97;60.39;101399.84;5040472;28;20253;-82
2023/06/04 05:05:32;;;;;;;1.83;1.73;;;;;;;11.01;60.23;101407.66;5041317;28;20226;-82
2023/06/04 05:08:00;;;;;;;2.13;1.93;;;;;;;10.98;59.07;101417.25;5041242;28;20211;-84
2023/06/04 05:10:27;;;;;;;2.23;1.77;;;;;;;11.14;59.91;101432.00;5041688;28;20705;-84
2023/06/04 05:12:54;;;;;;;1.40;1.30;;;;;;;11.32;60.59;101431.88;5041065;28;20200;-83
2023/06/04 05:15:21;;;;;;;2.40;1.80;;;;;;;11.46;61.30;101426.56;5040700;28;20227;-83
2023/06/04 05:17:47;;;;;;;1.93;1.40;;;;;;;11.57;60.67;101416.00;5041018;28;20261;-84
2023/06/04 05:20:15;;;;;;;1.63;1.53;;;;;;;11.69;61.45;101418.56;5042937;28;20212;-84
2023/06/04 05:22:42;;;;;;;3.80;1.67;;;;;;;11.88;58.70;101410.56;5043469;28;20229;-84
2023/06/04 05:25:10;;;;;;;1.60;1.50;;;;;;;11.99;60.35;101442.75;5044291;28;20283;-82
2023/06/04 05:27:37;;;;;;;1.90;1.73;;;;;;;12.01;57.97;101441.00;5042792;28;20213;-82
2023/06/04 05:30:03;;;;;;;2.07;1.50;;;;;;;12.13;58.33;101479.28;5035244;28;20210;-81
2023/06/04 05:32:30;;;;;;;2.70;1.67;;;;;;;12.22;57.94;101492.28;5034703;28;20213;-83
2023/06/04 05:34:58;;;;;;;2.27;1.70;;;;;;;11.81;57.49;101532.66;5033791;28;20232;-82
2023/06/04 05:37:26;;;;;;;1.53;1.40;;;;;;;11.75;58.50;101539.69;5034228;28;20205;-81
2023/06/04 05:39:53;;;;;;;1.80;1.70;;;;;;;11.84;58.13;101526.56;5034463;28;20239;-82
2023/06/04 05:42:20;;;;;;;2.00;1.50;;;;;;;11.80;57.06;101533.56;5033551;28;20720;-82
2023/06/04 05:44:48;;;;;;;2.13;1.80;;;;;;;11.89;57.13;101546.63;5033776;28;20253;-81
2023/06/04 05:47:15;;;;;;;1.87;1.77;;;;;;;11.91;56.75;101563.19;5033803;28;20631;-81
2023/06/04 05:49:46;;;;;;;2.10;1.90;;;;;;;11.65;59.23;101585.94;5034995;28;20274;-82
2023/06/04 05:52:13;;;;;;;2.07;1.80;;;;;;;11.57;60.53;101552.00;5034475;28;20211;-81
2023/06/04 05:54:39;;;;;;;1.90;1.70;;;;;;;11.58;61.96;101508.44;5034429;28;20281;-81
2023/06/04 05:57:06;;;;;;;2.67;2.10;;;;;;;11.59;63.27;101476.16;5033808;28;20845;-80
2023/06/04 05:59:34;;;;;;;2.40;2.20;;;;;;;11.68;64.23;101414.19;5033569;28;20205;-81
2023/06/04 06:02:00;;;;;;;2.23;2.07;;;;;;;11.84;63.66;101391.38;5039243;28;20282;-83
2023/06/04 06:04:27;;;;;;;2.13;1.83;;;;;;;11.76;62.83;101376.66;5035850;28;20227;-81
2023/06/04 06:06:53;;;;;;;2.80;1.73;;;;;;;11.71;62.64;101381.91;5036419;28;20212;-80
2023/06/04 06:09:20;;;;;;;2.10;2.00;;;;;;;11.72;61.97;101394.13;5036473;28;20220;-81
2023/06/04 06:11:46;;;;;;;2.67;1.70;;;;;;;11.86;61.58;101401.84;5035277;28;20266;-81
2023/06/04 06:14:13;;;;;;;1.83;1.67;;;;;;;12.08;60.81;101406.03;5023811;28;20267;-82
2023/06/04 06:16:41;;;;;;;2.03;1.80;;;;;;;12.18;60.55;101417.28;5035117;28;20237;-83
2023/06/04 06:19:07;;;;;;;2.40;1.70;;;;;;;12.37;60.25;101435.41;5033997;28;20211;-82
2023/06/04 06:21:33;;;;;;;1.80;1.70;;;;;;;12.54;58.88;101443.97;5034708;28;20230;-83
2023/06/04 06:24:00;;;;;;;2.90;1.87;;;;;;;12.65;57.99;101485.75;5022174;28;20249;-82
2023/06/04 06:26:26;;;;;;;1.57;1.47;;;;;;;12.63;56.64;101514.59;5014918;28;20213;-82
2023/06/04 06:28:52;;;;;;;1.93;1.67;;;;;;;12.76;56.28;101551.13;5015242;28;20213;-83
2023/06/04 06:31:19;;;;;;;2.40;1.80;;;;;;;12.81;57.75;101580.78;5015261;28;20216;-83
2023/06/04 06:33:47;;;;;;;1.60;1.50;;;;;;;12.79;57.16;101593.03;5014991;28;20213;-83
2023/06/04 06:36:18;;;;;;;2.20;1.90;;;;;;;12.94;57.42;101597.25;5005235;28;20225;-83
2023/06/04 06:38:44;;;;;;;3.57;1.33;;;;;;;13.02;57.20;101604.16;5005933;28;20260;-82
2023/06/04 06:41:11;;;;;;;2.03;1.70;;;;;;;13.15;56.45;101614.50;5004743;28;20206;-83
2023/06/04 06:43:37;;;;;;;2.83;1.60;;;;;;;13.21;56.98;101624.94;5004967;28;20712;-84
2023/06/04 06:46:04;;;;;;;2.50;1.50;;;;;;;13.31;55.74;101637.09;5015832;28;20237;-84
2023/06/04 06:48:30;;;;;;;1.53;1.43;;;;;;;13.34;55.07;101660.66;5008234;28;20202;-84
2023/06/04 06:50:58;;;;;;;1.37;1.27;;;;;;;13.40;55.00;101672.81;5006489;28;20202;-82
2023/06/04 06:53:24;;;;;;;3.60;1.50;;;;;;;13.47;54.92;101692.88;5005741;28;20234;-83
2023/06/04 06:55:51;;;;;;;1.50;1.40;;;;;;;13.48;54.86;101708.59;5004782;28;20638;-82
2023/06/04 06:58:17;;;;;;;1.63;1.53;;;;;;;13.49;55.34;101702.44;5004787;28;20205;-84
2023/06/04 07:00:44;;;;;;;1.33;1.23;;;;;;;13.47;55.84;101703.34;5005953;28;20229;-82
2023/06/04 07:03:10;;;;;;;1.90;1.63;;;;;;;13.38;56.75;101692.94;5004280;28;20246;-84
2023/06/04 07:05:36;;;;;;;4.20;2.17;;;;;;;13.52;56.70;101672.72;5005179;28;20221;-81
2023/06/04 07:08:05;;;;;;;1.60;1.50;;;;;;;13.61;57.31;101667.34;5005654;28;20206;-83
2023/06/04 07:10:31;;;;;;;1.73;1.63;;;;;;;13.81;56.38;101647.88;5003147;28;20487;-83
2023/06/04 07:12:57;;;;;;;1.60;1.50;;;;;;;13.96;56.37;101650.28;5005183;28;20234;-85
2023/06/04 07:15:24;;;;;;;1.77;1.60;;;;;;;14.09;55.50;101659.75;5013849;28;20296;-84
2023/06/04 07:17:50;;;;;;;2.20;2.00;;;;;;;14.07;54.93;101674.66;5010109;28;20208;-85
2023/06/04 07:20:18;;;;;;;1.80;1.70;;;;;;;14.03;55.78;101683.47;5002885;28;20253;-84
2023/06/04 07:22:45;;;;;;;1.53;1.43;;;;;;;14.04;55.58;101676.44;5003545;28;20226;-85
2023/06/04 07:25:12;;;;;;;4.30;1.70;;;;;;;14.06;55.18;101678.16;5003468;28;20220;-83
2023/06/04 07:27:39;;;;;;;1.63;1.53;;;;;;;14.24;55.19;101678.78;5004964;28;20198;-83
2023/06/04 07:30:08;;;;;;;2.30;1.70;;;;;;;14.38;54.64;101686.47;5008147;28;20207;-83
2023/06/04 07:32:35;;;;;;;2.03;1.80;;;;;;;14.46;54.28;101701.22;5008253;28;20270;-84
2023/06/04 07:35:02;;;;;;;2.83;1.80;;;;;;;14.50;53.15;101717.81;5008389;28;20242;-83
2023/06/04 07:37:28;;;;;;;1.90;1.70;;;;;;;14.59;53.01;101740.47;5009940;28;20256;-84
2023/06/04 07:39:55;;;;;;;2.47;2.00;;;;;;;14.67;53.74;101755.25;5008798;28;20200;-83
2023/06/04 07:42:22;;;;;;;2.10;1.50;;;;;;;14.75;53.34;101760.41;5009311;28;20206;-81
2023/06/04 07:44:49;;;;;;;2.53;1.57;;;;;;;14.88;53.13;101755.81;5015897;28;20227;-85
2023/06/04 07:47:15;;;;;;;1.87;1.77;;;;;;;14.93;53.29;101777.66;5018114;28;20221;-83
2023/06/04 07:49:41;;;;;;;1.97;1.80;;;;;;;14.86;53.51;101774.22;5008640;28;20746;-84
2023/06/04 07:52:08;;;;;;;2.27;1.60;;;;;;;14.92;52.42;101780.31;5010404;28;20207;-84
2023/06/04 07:54:34;;;;;;;2.83;1.70;;;;;;;15.01;53.36;101791.53;5009137;28;20787;-85
2023/06/04 07:57:01;;;;;;;2.67;1.83;;;;;;;15.17;53.32;101779.03;5008887;28;20293;-85
2023/06/04 07:59:29;;;;;;;3.17;1.83;;;;;;;15.26;51.52;101778.88;5010264;28;20202;-84
2023/06/04 08:01:55;;;;;;;1.80;1.70;;;;;;;15.38;51.37;101816.38;5008437;28;20299;-85
2023/06/04 08:04:22;;;;;;;2.63;1.93;;;;;;;15.43;50.29;101839.09;5009488;28;20314;-85
2023/06/04 08:06:49;;;;;;;2.27;1.60;;;;;;;15.49;49.72;101875.84;5009924;28;20720;-84
2023/06/04 08:09:16;;;;;;;2.90;2.10;;;;;;;15.59;49.95;101887.06;5011243;28;20207;-83
2023/06/04 08:11:44;;;;;;;3.50;1.90;;;;;;;15.66;50.19;101907.16;5008526;28;20258;-85
2023/06/04 08:14:12;;;;;;;1.90;1.63;;;;;;;15.70;48.80;101913.25;5015262;28;20547;-83
2023/06/04 08:16:40;;;;;;;3.53;1.80;;;;;;;15.78;48.38;101939.47;5040640;28;20210;-83
2023/06/04 08:19:07;;;;;;;3.70;2.10;;;;;;;15.87;49.07;101953.34;5022849;28;20215;-83
2023/06/04 08:21:35;;;;;;;1.77;1.67;;;;;;;15.99;49.59;101944.34;5010783;28;20739;-84
2023/06/04 08:24:02;;;;;;;1.67;1.50;;;;;;;15.99;48.95;101954.88;5011653;28;20232;-83
2023/06/04 08:26:28;;;;;;;1.73;1.60;;;;;;;16.05;50.17;101965.34;5017672;28;20577;-82
2023/06/04 08:28:58;;;;;;;2.33;1.73;;;;;;;16.16;50.42;101937.94;5017444;28;20230;-82
2023/06/04 08:31:24;;;;;;;2.90;1.73;;;;;;;16.16;50.12;101923.00;5018683;28;20229;-83
2023/06/04 08:33:52;;;;;;;1.60;1.40;;;;;;;16.21;48.18;101921.16;5019422;28;20206;-82
2023/06/04 08:36:18;;;;;;;2.33;1.57;;;;;;;16.35;48.73;101954.25;5006296;28;20362;-81
2023/06/04 08:38:44;;;;;;;4.50;3.00;;;;;;;16.47;48.70;101962.81;5009181;28;20195;-83
2023/06/04 08:41:18;;;;;;;2.43;1.37;;;;;;;16.57;48.88;101967.91;5009054;28;20574;-83
2023/06/04 08:43:46;;;;;;;2.47;1.77;;;;;;;16.62;48.77;101963.41;5008827;28;20274;-82
2023/06/04 08:46:13;;;;;;;4.87;1.80;;;;;;;16.72;48.96;101969.38;5037145;28;20612;-84
2023/06/04 08:48:39;;;;;;;1.70;1.30;;;;;;;16.81;49.98;101977.13;5042775;28;20213;-83
2023/06/04 08:51:09;;;;;;;1.30;1.20;;;;;;;16.91;48.17;101954.06;5043047;28;20673;-84
2023/06/04 08:53:35;;;;;;;2.77;1.40;;;;;;;17.00;47.76;101964.44;5042865;28;20206;-83
2023/06/04 08:56:02;;;;;;;3.00;1.43;;;;;;;17.04;47.42;102000.41;5043651;28;20226;-84
2023/06/04 08:58:32;;;;;;;1.57;1.20;;;;;;;17.12;47.41;101998.47;5042266;28;20554;-84
2023/06/04 09:00:58;;;;;;;1.40;1.30;;;;;;;17.14;47.28;101993.16;5043540;28;20348;-82
2023/06/04 09:03:26;;;;;;;1.70;1.60;;;;;;;17.19;45.51;102023.84;5043696;28;20225;-82
2023/06/04 09:05:53;;;;;;;1.83;1.10;;;;;;;17.25;46.54;102059.78;5042056;28;20236;-83
2023/06/04 09:08:23;;;;;;;1.43;1.30;;;;;;;17.24;44.65;102034.28;5041985;28;20198;-83
2023/06/04 09:10:51;;;;;;;1.20;1.10;;;;;;;17.38;45.69;102074.47;5043100;28;20207;-82
2023/06/04 09:13:19;;;;;;;2.70;1.50;;;;;;;17.47;46.17;102107.72;5040346;28;20210;-82
2023/06/04 09:15:46;;;;;;;2.03;1.40;;;;;;;17.55;45.15;102052.13;5040344;28;20633;-83
2023/06/04 09:18:12;;;;;;;2.43;1.50;;;;;;;17.57;43.39;102097.84;5041074;28;20210;-83
2023/06/04 09:20:39;;;;;;;2.10;1.17;;;;;;;17.61;43.26;102149.69;5041110;28;20266;-83
2023/06/04 09:23:14;;;;;;;1.50;1.40;;;;;;;17.59;44.80;102178.75;5041346;28;20226;-82
2023/06/04 09:25:44;;;;;;;1.60;1.10;;;;;;;17.72;44.12;102168.81;5040881;28;20229;-83
2023/06/04 09:28:11;;;;;;;2.53;1.37;;;;;;;17.80;43.42;102177.44;5040717;28;20206;-82
2023/06/04 09:30:37;;;;;;;2.40;1.00;;;;;;;17.85;43.74;102195.88;5042029;28;20208;-83
2023/06/04 09:33:07;;;;;;;1.17;0.90;;;;;;;17.88;40.82;102203.75;5041567;28;20199;-83
2023/06/04 09:35:34;;;;;;;1.17;1.00;;;;;;;17.92;40.80;102247.69;5042465;28;20250;-83
2023/06/04 09:38:00;;;;;;;1.47;1.10;;;;;;;17.99;40.99;102301.28;5041079;28;20206;-83
2023/06/04 09:40:37;;;;;;;1.47;1.23;;;;;;;18.09;42.28;102281.69;5040210;28;20214;-83
2023/06/04 09:43:05;;;;;;;1.70;1.23;;;;;;;18.21;41.64;102288.47;5039914;28;20206;-83
2023/06/04 09:45:33;;;;;;;0.97;0.90;;;;;;;18.31;42.68;102289.16;5039578;28;20625;-83
2023/06/04 09:47:59;;;;;;;2.30;1.10;;;;;;;18.41;40.27;102254.56;5040499;28;20210;-83
2023/06/04 09:50:27;;;;;;;1.87;1.30;;;;;;;18.52;39.64;102293.13;5040773;28;20206;-83
2023/06/04 09:52:53;;;;;;;2.67;1.50;;;;;;;18.57;40.09;102333.53;5039386;28;20214;-84
2023/06/04 09:55:22;;;;;;;1.03;0.90;;;;;;;18.63;42.15;102328.09;5041641;28;20249;-83
2023/06/04 09:57:49;;;;;;;1.20;1.00;;;;;;;18.73;42.71;102310.25;5040847;28;20214;-84
2023/06/04 10:00:20;;;;;;;1.67;0.80;;;;;;;18.79;42.86;102254.53;5039707;28;20558;-83
2023/06/04 10:02:48;;;;;;;1.83;1.37;;;;;;;18.84;40.66;102242.97;5040804;28;20237;-83
2023/06/04 10:05:16;;;;;;;1.63;0.97;;;;;;;18.93;39.57;102278.94;5039812;28;20234;-83
2023/06/04 10:07:44;;;;;;;1.43;1.00;;;;;;;18.96;37.85;102317.69;5040049;28;20214;-82
2023/06/04 10:10:16;;;;;;;2.30;1.23;;;;;;;18.98;37.92;102374.97;5042049;28;20273;-83
2023/06/04 10:12:43;;;;;;;1.60;1.00;;;;;;;18.90;37.31;102400.75;5042299;28;20209;-83
2023/06/04 10:15:12;;;;;;;1.03;1.03;;;;;;;18.94;37.55;102438.59;5042425;28;20237;-83
2023/06/04 10:17:41;;;;;;;1.13;1.03;;;;;;;19.03;38.49;102443.72;5043224;28;20232;-83
2023/06/04 10:20:09;;;;;;;2.53;1.00;;;;;;;19.11;39.10;102432.91;5043855;28;20202;-84
2023/06/04 10:22:36;;;;;;;1.93;1.10;;;;;;;19.17;39.04;102415.13;5044900;28;20758;-84
2023/06/04 10:25:03;;;;;;;1.20;1.10;;;;;;;19.19;37.55;102409.81;5045206;28;20241;-82
2023/06/04 10:27:31;;;;;;;2.30;1.07;;;;;;;19.11;39.75;102439.09;5044828;28;20209;-82
2023/06/04 10:29:58;;;;;;;1.57;1.00;;;;;;;19.26;39.36;102353.13;5044960;28;20215;-83
2023/06/04 10:32:28;;;;;;;2.03;1.03;;;;;;;19.35;39.12;102381.19;5041803;28;20275;-82
2023/06/04 10:34:57;;;;;;;2.87;1.17;;;;;;;19.44;38.82;102379.19;5036933;28;20218;-82
2023/06/04 10:37:24;;;;;;;1.63;0.80;;;;;;;19.55;37.50;102385.97;5036338;28;20206;-82
2023/06/04 10:39:55;;;;;;;2.07;1.10;;;;;;;19.61;37.07;102391.13;5040792;28;20236;-83
2023/06/04 10:42:23;;;;;;;1.13;1.03;;;;;;;19.68;37.35;102408.59;5041176;28;20248;-83
2023/06/04 10:44:51;;;;;;;1.10;1.00;;;;;;;19.74;36.69;102420.84;5066061;22;20321;-77
2023/06/04 10:47:22;;;;;;;1.43;1.00;;;;;;;19.80;37.93;102434.81;5057334;28;20259;-79
2023/06/04 10:49:50;;;;;;;1.20;0.90;;;;;;;19.87;36.55;102430.22;5060130;28;20205;-80
2023/06/04 10:52:18;;;;;;;1.33;1.10;;;;;;;19.95;37.35;102449.44;5059931;28;20206;-79
2023/06/04 10:54:46;;;;;;;1.53;1.10;;;;;;;20.06;38.32;102453.59;5057870;28;20205;-78
2023/06/04 10:57:13;;;;;;;2.43;0.97;;;;;;;20.14;36.18;102425.97;5036502;28;20229;-79
2023/06/04 10:59:40;;;;;;;2.87;1.10;;;;;;;20.21;36.82;102455.84;5037831;28;20209;-79
2023/06/04 11:02:08;;;;;;;1.30;1.20;;;;;;;20.30;36.30;102447.66;5043419;28;20333;-78
2023/06/04 11:04:34;;;;;;;1.43;1.00;;;;;;;20.42;35.81;102457.91;5049539;28;20268;-79
2023/06/04 11:07:03;;;;;;;1.20;0.90;;;;;;;20.52;35.46;102466.47;5043275;28;20268;-79
2023/06/04 11:09:31;;;;;;;4.00;1.00;;;;;;;20.60;35.97;102484.88;5042260;28;20242;-79
2023/06/04 11:11:58;;;;;;;4.03;1.10;;;;;;;20.37;35.54;102515.50;5040697;28;20256;-79
2023/06/04 11:14:24;;;;;;;1.60;1.13;;;;;;;20.62;36.79;102498.97;5042404;28;20206;-79
2023/06/04 11:16:51;;;;;;;1.50;0.97;;;;;;;20.78;36.10;102504.72;5043772;28;20272;-79
2023/06/04 11:19:17;;;;;;;1.30;1.10;;;;;;;20.94;35.88;102486.56;5040639;28;20245;-80
2023/06/04 11:21:44;;;;;;;1.00;0.97;;;;;;;21.11;36.54;102483.38;5040245;28;20717;-79
2023/06/04 11:24:13;;;;;;;1.60;1.03;;;;;;;21.19;34.81;102471.63;5039254;28;20232;-79